Time;durP1;ratioP1;P1;durP2;ratioP2;P2;SDS_P1;SDS_P2;PMS_P1;PMS_P2;Temp;Humidity;BMP_temperature;BMP_pressure;BME280_temperature;BME280_humidity;BME280_pressure;Samples;Min_cycle;Max_cycle;Signal;HPM_P1;HPM_P2
2022/08/19 00:00:27;;;;;;;3.13;2.83;;;23.30;99.90;;;;;;1051902;28;20016;-65
2022/08/19 00:00:57;;;;;;;3.73;2.97;;;23.30;99.90;;;;;;1051670;28;20024;-67
2022/08/19 00:01:29;;;;;;;3.47;3.10;;;23.30;99.90;;;;;;1051769;28;20044;-65
2022/08/19 00:02:00;;;;;;;3.55;2.63;;;23.30;99.90;;;;;;1051540;28;20054;-65
2022/08/19 00:02:31;;;;;;;3.33;2.87;;;23.30;99.90;;;;;;1051980;28;20012;-65
2022/08/19 00:03:02;;;;;;;4.93;3.27;;;23.30;99.90;;;;;;1051548;28;20020;-65
2022/08/19 00:03:32;;;;;;;4.05;2.80;;;23.30;99.90;;;;;;1051941;28;20024;-65
2022/08/19 00:04:07;;;;;;;4.10;2.73;;;23.30;99.90;;;;;;1051445;28;20027;-66
2022/08/19 00:04:37;;;;;;;3.60;3.30;;;23.30;99.90;;;;;;1051897;28;20473;-65
2022/08/19 00:05:10;;;;;;;4.03;3.17;;;23.30;99.90;;;;;;1051617;28;20471;-65
2022/08/19 00:05:41;;;;;;;3.55;3.22;;;23.30;99.90;;;;;;1051970;28;20019;-65
2022/08/19 00:06:12;;;;;;;3.20;2.90;;;23.30;99.90;;;;;;1051614;28;20229;-65
2022/08/19 00:06:45;;;;;;;4.57;3.53;;;23.30;99.90;;;;;;1051798;28;20042;-65
2022/08/19 00:07:16;;;;;;;3.40;3.08;;;23.30;99.90;;;;;;1051715;28;20038;-66
2022/08/19 00:07:47;;;;;;;3.50;2.80;;;23.30;99.90;;;;;;1051735;28;20020;-66
2022/08/19 00:08:17;;;;;;;3.45;3.10;;;23.20;99.90;;;;;;1051750;28;20027;-66
2022/08/19 00:08:48;;;;;;;3.63;3.33;;;23.30;99.90;;;;;;1051779;28;20026;-65
2022/08/19 00:09:21;;;;;;;3.40;3.13;;;23.20;99.90;;;;;;1051597;28;20027;-66
2022/08/19 00:09:51;;;;;;;3.28;2.97;;;23.20;99.90;;;;;;1054452;28;20367;-65
2022/08/19 00:10:23;;;;;;;3.33;3.03;;;23.20;99.90;;;;;;1055798;28;20407;-65
2022/08/19 00:10:54;;;;;;;3.85;3.28;;;23.20;99.90;;;;;;1056039;28;20016;-64
2022/08/19 00:11:25;;;;;;;3.30;3.00;;;23.20;99.90;;;;;;1055927;28;20019;-65
2022/08/19 00:11:57;;;;;;;3.50;3.05;;;23.20;99.90;;;;;;1055906;28;20027;-65
2022/08/19 00:12:28;;;;;;;3.50;3.13;;;23.20;99.90;;;;;;1055768;28;20040;-65
2022/08/19 00:12:58;;;;;;;3.43;3.13;;;23.20;99.90;;;;;;1055992;28;20015;-66
2022/08/19 00:13:29;;;;;;;3.07;2.87;;;23.20;99.90;;;;;;1055877;28;20161;-65
2022/08/19 00:14:00;;;;;;;4.07;3.33;;;23.20;99.90;;;;;;1055752;28;20041;-65
2022/08/19 00:14:31;;;;;;;3.30;3.00;;;23.20;99.90;;;;;;1055798;28;20015;-66
2022/08/19 00:15:01;;;;;;;3.45;3.00;;;23.20;99.90;;;;;;1055919;28;20034;-65
2022/08/19 00:15:33;;;;;;;3.53;3.20;;;23.20;99.90;;;;;;1055886;28;20571;-65
2022/08/19 00:16:05;;;;;;;3.10;2.80;;;23.20;99.90;;;;;;1055917;28;20173;-65
2022/08/19 00:16:38;;;;;;;3.40;3.10;;;23.20;99.90;;;;;;1055813;28;20027;-65
2022/08/19 00:17:09;;;;;;;3.30;3.00;;;23.20;99.90;;;;;;1055823;28;20024;-65
2022/08/19 00:17:42;;;;;;;4.30;3.17;;;23.20;99.90;;;;;;1055772;28;20019;-65
2022/08/19 00:18:12;;;;;;;3.30;3.00;;;23.20;99.90;;;;;;1055842;28;20038;-65
2022/08/19 00:18:43;;;;;;;3.97;3.33;;;23.20;99.90;;;;;;1055656;28;20023;-65
2022/08/19 00:19:15;;;;;;;3.87;3.47;;;23.20;99.90;;;;;;1056141;28;20459;-65
2022/08/19 00:19:46;;;;;;;3.88;2.92;;;23.20;99.90;;;;;;1055733;28;20027;-65
2022/08/19 00:20:21;;;;;;;3.53;3.23;;;23.20;99.90;;;;;;1056045;28;20022;-65
2022/08/19 00:20:51;;;;;;;4.00;3.17;;;23.20;99.90;;;;;;1051190;28;20020;-65
2022/08/19 00:21:26;;;;;;;3.90;3.43;;;23.20;99.90;;;;;;1051382;28;20016;-65
2022/08/19 00:21:57;;;;;;;3.95;3.55;;;23.10;99.90;;;;;;1051204;28;20024;-65
2022/08/19 00:22:28;;;;;;;3.30;3.00;;;23.10;99.90;;;;;;1052319;28;20050;-66
2022/08/19 00:22:58;;;;;;;3.70;3.30;;;23.10;99.90;;;;;;1055681;28;20008;-65
2022/08/19 00:23:29;;;;;;;4.17;3.03;;;23.10;99.90;;;;;;1056095;28;20106;-65
2022/08/19 00:24:00;;;;;;;3.28;2.97;;;23.10;99.90;;;;;;1055668;28;20012;-65
2022/08/19 00:24:32;;;;;;;3.20;2.90;;;23.10;99.90;;;;;;1055965;28;20128;-65
2022/08/19 00:25:03;;;;;;;3.85;3.45;;;23.10;99.90;;;;;;1055645;28;20007;-66
2022/08/19 00:25:33;;;;;;;3.55;2.83;;;23.10;99.90;;;;;;1056102;28;20049;-66
2022/08/19 00:26:05;;;;;;;3.73;3.40;;;23.10;99.90;;;;;;1055411;28;20037;-66
2022/08/19 00:26:37;;;;;;;3.53;3.22;;;23.10;99.90;;;;;;1056099;28;20053;-65
2022/08/19 00:27:07;;;;;;;3.95;3.38;;;23.10;99.90;;;;;;1055706;28;20062;-65
2022/08/19 00:27:38;;;;;;;3.60;3.30;;;23.10;99.90;;;;;;1055947;28;20154;-65
2022/08/19 00:28:09;;;;;;;3.60;3.30;;;23.10;99.90;;;;;;1055724;28;20043;-65
2022/08/19 00:28:40;;;;;;;4.47;4.00;;;23.10;99.90;;;;;;1055863;28;20020;-65
2022/08/19 00:29:14;;;;;;;3.25;2.95;;;23.10;99.90;;;;;;1055705;28;20019;-65
2022/08/19 00:29:44;;;;;;;3.42;3.13;;;23.10;99.90;;;;;;1055884;28;20012;-65
2022/08/19 00:30:15;;;;;;;3.33;3.03;;;23.10;99.90;;;;;;1055743;28;20107;-66
2022/08/19 00:30:45;;;;;;;3.33;2.73;;;23.10;99.90;;;;;;1055939;28;20366;-65
2022/08/19 00:31:16;;;;;;;3.57;3.27;;;23.10;99.90;;;;;;1055717;28;20018;-66
2022/08/19 00:31:47;;;;;;;3.90;3.20;;;23.10;99.90;;;;;;1055917;28;20012;-65
2022/08/19 00:32:18;;;;;;;3.70;2.95;;;23.10;99.90;;;;;;1055890;28;20011;-65
2022/08/19 00:32:48;;;;;;;3.57;3.27;;;23.10;99.90;;;;;;1055796;28;20015;-66
2022/08/19 00:33:19;;;;;;;3.03;2.67;;;23.10;99.90;;;;;;1055647;28;20482;-65
2022/08/19 00:33:50;;;;;;;3.20;2.90;;;23.10;99.90;;;;;;1055774;28;20018;-65
2022/08/19 00:34:22;;;;;;;3.57;3.23;;;23.10;99.90;;;;;;1055709;28;20011;-65
2022/08/19 00:34:53;;;;;;;3.65;2.90;;;23.10;99.90;;;;;;1055754;28;20055;-65
2022/08/19 00:35:24;;;;;;;3.45;3.13;;;23.10;99.90;;;;;;1055729;28;20023;-66
2022/08/19 00:35:55;;;;;;;3.50;3.20;;;23.10;99.90;;;;;;1055995;28;20015;-65
2022/08/19 00:36:28;;;;;;;4.30;3.20;;;23.10;99.90;;;;;;1055793;28;20012;-65
2022/08/19 00:36:59;;;;;;;3.42;2.70;;;23.10;99.90;;;;;;1055753;28;20054;-66
2022/08/19 00:37:29;;;;;;;3.40;3.10;;;23.10;99.90;;;;;;1055658;28;20012;-65
2022/08/19 00:38:00;;;;;;;3.17;2.87;;;23.10;99.90;;;;;;1055862;28;20900;-66
2022/08/19 00:38:31;;;;;;;5.80;3.53;;;23.10;99.90;;;;;;1055991;28;20622;-66
2022/08/19 00:39:02;;;;;;;4.20;2.90;;;23.10;99.90;;;;;;1055838;28;20068;-65
2022/08/19 00:39:32;;;;;;;3.63;3.33;;;23.10;99.90;;;;;;1055712;28;20286;-66
2022/08/19 00:40:05;;;;;;;3.20;2.90;;;23.10;99.90;;;;;;1051273;28;20008;-66
2022/08/19 00:40:36;;;;;;;2.90;2.70;;;23.10;99.90;;;;;;1051274;28;20024;-66
2022/08/19 00:41:07;;;;;;;2.90;2.50;;;23.10;99.90;;;;;;1051275;28;20024;-66
2022/08/19 00:41:38;;;;;;;4.70;3.50;;;23.10;99.90;;;;;;1051797;28;20028;-66
2022/08/19 00:42:08;;;;;;;3.03;2.72;;;23.10;99.90;;;;;;1055845;28;20268;-66
2022/08/19 00:42:39;;;;;;;2.80;2.50;;;23.10;99.90;;;;;;1055565;28;20058;-65
2022/08/19 00:43:10;;;;;;;4.53;2.77;;;23.10;99.90;;;;;;1055907;28;20016;-66
2022/08/19 00:43:41;;;;;;;3.60;3.17;;;23.10;99.90;;;;;;1055604;28;20023;-66
2022/08/19 00:44:16;;;;;;;3.77;3.03;;;23.10;99.90;;;;;;1055919;28;20070;-66
2022/08/19 00:44:47;;;;;;;3.42;3.13;;;23.10;99.90;;;;;;1055337;28;20023;-66
2022/08/19 00:45:20;;;;;;;3.60;3.30;;;23.00;99.90;;;;;;1055898;28;20016;-66
2022/08/19 00:45:51;;;;;;;4.18;2.95;;;23.00;99.90;;;;;;1055625;28;20487;-66
2022/08/19 00:46:21;;;;;;;4.17;3.77;;;23.00;99.90;;;;;;1055891;28;20474;-66
2022/08/19 00:46:54;;;;;;;3.70;3.13;;;23.00;99.90;;;;;;1055706;28;20491;-66
2022/08/19 00:47:25;;;;;;;4.47;3.47;;;23.00;99.90;;;;;;1055956;28;20736;-66
2022/08/19 00:47:56;;;;;;;3.43;3.13;;;23.00;99.90;;;;;;1055717;28;20736;-66
2022/08/19 00:48:26;;;;;;;3.30;3.00;;;23.00;99.90;;;;;;1055914;28;20132;-66
2022/08/19 00:48:58;;;;;;;4.00;3.00;;;23.10;99.90;;;;;;1055562;28;20016;-66
2022/08/19 00:49:51;;;;;;;3.28;2.97;;;23.00;99.90;;;;;;1056000;28;20374;-66
2022/08/19 00:50:22;;;;;;;4.20;3.80;;;23.00;99.90;;;;;;1055864;28;20012;-66
2022/08/19 00:50:55;;;;;;;3.30;3.00;;;23.00;99.90;;;;;;1055839;28;20034;-67
2022/08/19 00:51:28;;;;;;;5.32;4.15;;;23.00;99.90;;;;;;1055829;28;20386;-66
2022/08/19 00:52:08;;;;;;;3.42;3.13;;;23.00;99.90;;;;;;1055711;28;20420;-66
2022/08/19 00:52:45;;;;;;;3.75;2.97;;;23.00;99.90;;;;;;1055952;28;20028;-66
2022/08/19 00:53:19;;;;;;;4.22;3.28;;;23.00;99.90;;;;;;1055586;28;20690;-66
2022/08/19 00:53:50;;;;;;;3.83;3.42;;;23.00;99.90;;;;;;1055921;28;20107;-67
2022/08/19 00:54:21;;;;;;;3.83;3.47;;;23.00;99.90;;;;;;1055669;28;20015;-66
2022/08/19 00:54:53;;;;;;;3.38;3.08;;;23.00;99.90;;;;;;1055795;28;20024;-66
2022/08/19 00:55:27;;;;;;;4.50;3.15;;;23.00;99.90;;;;;;1055680;28;20509;-66
2022/08/19 00:56:00;;;;;;;4.50;3.33;;;23.00;99.90;;;;;;1055654;28;20418;-66
2022/08/19 00:56:31;;;;;;;3.67;3.30;;;22.90;99.90;;;;;;1055791;28;20332;-66
2022/08/19 00:57:06;;;;;;;3.58;3.20;;;22.90;99.90;;;;;;1055816;28;20018;-67
2022/08/19 00:57:39;;;;;;;3.10;2.80;;;22.90;99.90;;;;;;1055650;28;20046;-66
2022/08/19 00:58:15;;;;;;;3.67;3.10;;;22.90;99.90;;;;;;1055907;28;20023;-66
2022/08/19 00:58:45;;;;;;;3.05;2.75;;;23.00;99.90;;;;;;1055635;28;20020;-66
2022/08/19 00:59:18;;;;;;;3.87;3.17;;;23.00;99.90;;;;;;1055894;28;20008;-66
2022/08/19 00:59:54;;;;;;;4.07;2.70;;;22.90;99.90;;;;;;1055707;28;20249;-66
2022/08/19 01:00:27;;;;;;;3.50;3.20;;;22.90;99.90;;;;;;1055669;28;20095;-66
2022/08/19 01:00:57;;;;;;;5.22;3.72;;;22.90;99.90;;;;;;1055826;28;20023;-67
2022/08/19 01:01:28;;;;;;;3.20;2.90;;;22.90;99.90;;;;;;1055776;28;20048;-66
2022/08/19 01:01:59;;;;;;;3.43;3.13;;;22.90;99.90;;;;;;1055612;28;20068;-66
2022/08/19 01:02:31;;;;;;;4.70;3.43;;;22.90;99.90;;;;;;1055919;28;20023;-66
2022/08/19 01:03:06;;;;;;;4.05;3.65;;;22.90;99.90;;;;;;1055663;28;20119;-67
2022/08/19 01:03:37;;;;;;;3.30;3.00;;;22.90;99.90;;;;;;1055792;28;20023;-66
2022/08/19 01:04:08;;;;;;;4.17;3.40;;;22.90;99.90;;;;;;1055579;28;20097;-66
2022/08/19 01:04:38;;;;;;;4.90;3.83;;;22.90;99.90;;;;;;1055652;28;20055;-66
2022/08/19 01:05:18;;;;;;;3.17;2.90;;;22.90;99.90;;;;;;1055734;28;20557;-67
2022/08/19 01:05:50;;;;;;;3.33;3.03;;;22.90;99.90;;;;;;1055484;28;20668;-66
2022/08/19 01:06:21;;;;;;;4.43;3.88;;;22.90;99.90;;;;;;1055773;28;20012;-66
2022/08/19 01:06:51;;;;;;;3.73;3.37;;;22.90;99.90;;;;;;1055663;28;20483;-66
2022/08/19 01:07:22;;;;;;;3.47;3.17;;;22.90;99.90;;;;;;1055744;28;20008;-66
2022/08/19 01:07:53;;;;;;;3.93;3.50;;;22.90;99.90;;;;;;1055494;28;20552;-66
2022/08/19 01:08:24;;;;;;;4.53;3.35;;;22.90;99.90;;;;;;1055856;28;20026;-66
2022/08/19 01:08:55;;;;;;;5.07;3.40;;;22.90;99.90;;;;;;1055610;28;20024;-66
2022/08/19 01:09:25;;;;;;;3.73;3.43;;;22.90;99.90;;;;;;1051241;28;20028;-67
2022/08/19 01:09:56;;;;;;;4.07;3.20;;;22.90;99.90;;;;;;1050936;28;20846;-66
2022/08/19 01:10:30;;;;;;;3.20;2.97;;;22.90;99.90;;;;;;1051427;28;20474;-66
2022/08/19 01:11:01;;;;;;;3.53;3.22;;;22.90;99.90;;;;;;1051483;28;20099;-65
2022/08/19 01:11:38;;;;;;;3.73;3.33;;;22.90;99.90;;;;;;1055922;28;20024;-67
2022/08/19 01:12:09;;;;;;;3.40;3.05;;;22.90;99.90;;;;;;1055509;28;20031;-66
2022/08/19 01:12:40;;;;;;;3.10;2.80;;;22.90;99.90;;;;;;1055666;28;20035;-66
2022/08/19 01:13:13;;;;;;;3.72;3.35;;;22.90;99.90;;;;;;1055570;28;20023;-66
2022/08/19 01:13:45;;;;;;;3.10;2.80;;;22.90;99.90;;;;;;1055717;28;20043;-66
2022/08/19 01:14:16;;;;;;;3.85;3.30;;;22.90;99.90;;;;;;1055647;28;20022;-67
2022/08/19 01:14:48;;;;;;;3.13;2.80;;;22.90;99.90;;;;;;1055770;28;20409;-66
2022/08/19 01:15:26;;;;;;;3.28;2.97;;;22.90;99.90;;;;;;1055544;28;20012;-66
2022/08/19 01:16:01;;;;;;;3.20;2.90;;;22.80;99.90;;;;;;1055761;28;20016;-66
2022/08/19 01:16:34;;;;;;;3.35;3.05;;;22.90;99.90;;;;;;1051243;28;20023;-66
2022/08/19 01:17:06;;;;;;;3.50;2.85;;;22.90;99.90;;;;;;1051285;28;20711;-66
2022/08/19 01:17:38;;;;;;;3.58;3.28;;;22.90;99.90;;;;;;1051293;28;20759;-66
2022/08/19 01:18:13;;;;;;;3.80;3.00;;;22.90;99.90;;;;;;1052288;28;20113;-66
2022/08/19 01:18:43;;;;;;;4.80;3.20;;;22.90;99.90;;;;;;1055594;28;20028;-66
2022/08/19 01:19:27;;;;;;;3.83;3.17;;;22.80;99.90;;;;;;1055834;28;20051;-66
2022/08/19 01:19:57;;;;;;;4.05;3.13;;;22.80;99.90;;;;;;1055737;28;20055;-66
2022/08/19 01:20:28;;;;;;;4.83;3.20;;;22.80;99.90;;;;;;1055825;28;20020;-66
2022/08/19 01:21:05;;;;;;;4.07;3.70;;;22.80;99.90;;;;;;1055662;28;20019;-66
2022/08/19 01:21:50;;;;;;;3.20;2.90;;;22.80;99.90;;;;;;1055758;28;20028;-66
2022/08/19 01:22:24;;;;;;;3.25;2.95;;;22.80;99.90;;;;;;1055871;28;20050;-65
2022/08/19 01:22:57;;;;;;;4.15;3.47;;;22.80;99.90;;;;;;1055492;28;20062;-65
2022/08/19 01:23:42;;;;;;;3.47;3.05;;;22.80;99.90;;;;;;1055849;28;20172;-66
2022/08/19 01:24:12;;;;;;;4.13;3.72;;;22.80;99.90;;;;;;1055796;28;20241;-65
2022/08/19 01:24:43;;;;;;;3.73;3.00;;;22.80;99.90;;;;;;1055165;28;20068;-65
2022/08/19 01:25:16;;;;;;;3.60;3.30;;;22.80;99.90;;;;;;1055709;28;20016;-66
2022/08/19 01:25:52;;;;;;;3.53;3.22;;;22.80;99.90;;;;;;1055302;28;20018;-66
2022/08/19 01:26:24;;;;;;;3.33;3.03;;;22.80;99.90;;;;;;1055820;28;20603;-65
2022/08/19 01:26:55;;;;;;;3.35;3.03;;;22.80;99.90;;;;;;1055364;28;20020;-66
2022/08/19 01:27:26;;;;;;;4.37;3.77;;;22.80;99.90;;;;;;1055640;28;20023;-65
2022/08/19 01:27:57;;;;;;;3.33;2.73;;;22.80;99.90;;;;;;1055497;28;20020;-66
2022/08/19 01:28:27;;;;;;;3.63;3.25;;;22.80;99.90;;;;;;1055823;28;20488;-66
2022/08/19 01:29:00;;;;;;;4.37;3.13;;;22.80;99.90;;;;;;1055388;28;20414;-66
2022/08/19 01:29:31;;;;;;;3.47;2.85;;;22.80;99.90;;;;;;1055852;28;20053;-66
2022/08/19 01:30:02;;;;;;;3.63;3.20;;;22.80;99.90;;;;;;1054986;28;20041;-66
2022/08/19 01:30:34;;;;;;;3.43;3.13;;;22.80;99.90;;;;;;1055605;28;20024;-65
2022/08/19 01:31:07;;;;;;;3.40;3.10;;;22.80;99.90;;;;;;1050885;28;20269;-65
2022/08/19 01:31:38;;;;;;;3.92;3.50;;;22.80;99.90;;;;;;1051332;28;20046;-66
2022/08/19 01:32:13;;;;;;;4.45;3.10;;;22.80;99.90;;;;;;1050956;28;20412;-67
2022/08/19 01:32:43;;;;;;;4.07;3.33;;;22.80;99.90;;;;;;1052310;28;20020;-66
2022/08/19 01:33:14;;;;;;;3.63;3.20;;;22.80;99.90;;;;;;1055612;28;20016;-67
2022/08/19 01:33:46;;;;;;;4.13;3.47;;;22.80;99.90;;;;;;1054945;28;20024;-66
2022/08/19 01:34:17;;;;;;;4.05;3.10;;;22.80;99.90;;;;;;1055643;28;20011;-66
2022/08/19 01:34:47;;;;;;;3.23;2.93;;;22.80;99.90;;;;;;1055517;28;20027;-66
2022/08/19 01:35:18;;;;;;;3.87;3.20;;;22.70;99.90;;;;;;1055595;28;20020;-66
2022/08/19 01:35:51;;;;;;;3.03;2.70;;;22.70;99.90;;;;;;1055850;28;20382;-66
2022/08/19 01:36:29;;;;;;;3.50;3.20;;;22.70;99.90;;;;;;1055351;28;20471;-66
2022/08/19 01:37:05;;;;;;;3.17;2.88;;;22.70;99.90;;;;;;1051006;28;20020;-66
2022/08/19 01:37:47;;;;;;;3.25;2.95;;;22.70;99.90;;;;;;1051063;28;20105;-66
2022/08/19 01:38:24;;;;;;;3.35;3.05;;;22.70;99.90;;;;;;1051172;28;20425;-66
2022/08/19 01:38:57;;;;;;;3.33;3.03;;;22.70;99.90;;;;;;1054659;28;20058;-66
2022/08/19 01:39:28;;;;;;;3.83;3.33;;;22.70;99.90;;;;;;1055519;28;20103;-66
2022/08/19 01:39:58;;;;;;;2.80;2.60;;;22.70;99.90;;;;;;1055641;28;20106;-66
2022/08/19 01:40:32;;;;;;;5.53;3.30;;;22.70;99.90;;;;;;1055599;28;20114;-66
2022/08/19 01:41:03;;;;;;;3.10;2.80;;;22.70;99.90;;;;;;1055466;28;20577;-66
2022/08/19 01:41:34;;;;;;;6.60;3.13;;;22.70;99.90;;;;;;1055595;28;20410;-66
2022/08/19 01:42:09;;;;;;;3.15;2.85;;;22.70;99.90;;;;;;1055607;28;20628;-66
2022/08/19 01:42:41;;;;;;;3.50;3.00;;;22.70;99.90;;;;;;1055450;28;20024;-66
2022/08/19 01:43:11;;;;;;;2.80;2.60;;;22.70;99.90;;;;;;1055544;28;20339;-66
2022/08/19 01:43:42;;;;;;;3.40;3.00;;;22.70;99.90;;;;;;1059210;27;20120;-66
2022/08/19 01:44:12;;;;;;;3.40;3.10;;;22.70;99.90;;;;;;1059505;27;20102;-66
2022/08/19 01:44:43;;;;;;;4.53;3.40;;;22.70;99.90;;;;;;1059263;27;20012;-66
2022/08/19 01:45:14;;;;;;;3.70;3.37;;;22.70;99.90;;;;;;1055280;28;20614;-65
2022/08/19 01:45:45;;;;;;;3.93;3.20;;;22.70;99.90;;;;;;1050869;28;20396;-66
2022/08/19 01:46:17;;;;;;;3.40;3.10;;;22.70;99.90;;;;;;1051290;28;20012;-66
2022/08/19 01:46:48;;;;;;;3.15;2.85;;;22.70;99.90;;;;;;1051263;28;20054;-66
2022/08/19 01:47:19;;;;;;;3.80;3.20;;;22.70;99.90;;;;;;1055625;28;20023;-66
2022/08/19 01:47:50;;;;;;;3.45;2.90;;;22.60;99.90;;;;;;1055558;28;20107;-66
2022/08/19 01:48:20;;;;;;;3.27;2.97;;;22.60;99.90;;;;;;1055649;28;20019;-66
2022/08/19 01:48:51;;;;;;;2.90;2.70;;;22.70;99.90;;;;;;1055560;28;20027;-66
2022/08/19 01:49:25;;;;;;;4.53;3.00;;;22.60;99.90;;;;;;1055643;28;20351;-66
2022/08/19 01:49:55;;;;;;;3.38;3.08;;;22.70;99.90;;;;;;1055325;28;20023;-66
2022/08/19 01:50:27;;;;;;;3.83;3.47;;;22.70;99.90;;;;;;1055841;28;20026;-66
2022/08/19 01:50:58;;;;;;;3.38;2.40;;;22.60;99.90;;;;;;1055449;28;20410;-66
2022/08/19 01:51:30;;;;;;;2.57;2.37;;;22.60;99.90;;;;;;1055685;28;20486;-66
2022/08/19 01:52:01;;;;;;;5.32;2.85;;;22.60;99.90;;;;;;1055321;28;20022;-65
2022/08/19 01:52:31;;;;;;;4.50;2.78;;;22.60;99.90;;;;;;1055789;28;20034;-66
2022/08/19 01:53:04;;;;;;;2.80;2.50;;;22.60;99.90;;;;;;1050506;28;20050;-66
2022/08/19 01:53:35;;;;;;;2.78;2.58;;;22.60;99.90;;;;;;1051140;28;20052;-66
2022/08/19 01:54:11;;;;;;;4.80;2.70;;;22.60;99.90;;;;;;1050730;28;20391;-66
2022/08/19 01:54:42;;;;;;;3.10;2.75;;;22.60;99.90;;;;;;1052376;28;20122;-65
2022/08/19 01:55:16;;;;;;;2.57;2.37;;;22.60;99.90;;;;;;1050827;28;20169;-65
2022/08/19 01:55:48;;;;;;;3.75;3.20;;;22.60;99.90;;;;;;1051015;28;20502;-66
2022/08/19 01:56:19;;;;;;;3.50;3.20;;;22.60;99.90;;;;;;1051010;28;20103;-66
2022/08/19 01:56:52;;;;;;;3.05;2.58;;;22.60;99.90;;;;;;1052187;28;20024;-65
2022/08/19 01:57:23;;;;;;;3.10;2.80;;;22.70;99.90;;;;;;1055423;28;20046;-65
2022/08/19 01:57:57;;;;;;;4.03;3.30;;;22.60;99.90;;;;;;1055601;28;20019;-66
2022/08/19 01:58:36;;;;;;;3.95;3.17;;;22.60;99.90;;;;;;1050830;28;20028;-66
2022/08/19 01:59:16;;;;;;;3.05;2.75;;;22.60;99.90;;;;;;1051086;28;20028;-66
2022/08/19 01:59:47;;;;;;;3.45;2.60;;;22.60;99.90;;;;;;1050941;28;20118;-66
2022/08/19 02:00:20;;;;;;;3.37;2.90;;;22.60;99.90;;;;;;1053989;28;20028;-65
2022/08/19 02:00:50;;;;;;;3.25;2.95;;;22.60;99.90;;;;;;1055489;28;20023;-66
2022/08/19 02:01:21;;;;;;;3.43;2.87;;;22.70;99.90;;;;;;1055547;28;20601;-65
2022/08/19 02:01:51;;;;;;;3.00;2.70;;;22.60;99.90;;;;;;1055384;28;20044;-66
2022/08/19 02:02:22;;;;;;;3.70;3.20;;;22.60;99.90;;;;;;1055540;28;20016;-66
2022/08/19 02:02:54;;;;;;;3.42;3.13;;;22.60;99.90;;;;;;1055312;28;20023;-65
2022/08/19 02:03:24;;;;;;;3.28;2.95;;;22.60;99.90;;;;;;1055690;28;20096;-65
2022/08/19 02:03:55;;;;;;;3.00;2.70;;;22.60;99.90;;;;;;1055183;28;20037;-66
2022/08/19 02:04:27;;;;;;;3.40;3.10;;;22.60;99.90;;;;;;1051171;28;20430;-66
2022/08/19 02:04:58;;;;;;;2.90;2.70;;;22.60;99.90;;;;;;1050714;28;20773;-66
2022/08/19 02:05:29;;;;;;;4.65;3.10;;;22.60;99.90;;;;;;1051028;28;20031;-66
2022/08/19 02:06:02;;;;;;;2.90;2.58;;;22.60;99.90;;;;;;1051284;28;20625;-65
2022/08/19 02:06:33;;;;;;;3.00;2.65;;;22.60;99.90;;;;;;1055653;28;20024;-66
2022/08/19 02:07:04;;;;;;;3.33;2.70;;;22.60;99.90;;;;;;1055341;28;20023;-66
2022/08/19 02:07:35;;;;;;;3.20;2.80;;;22.60;99.90;;;;;;1055871;28;20024;-66
2022/08/19 02:08:07;;;;;;;2.90;2.60;;;22.60;99.90;;;;;;1055253;28;20023;-65
2022/08/19 02:08:39;;;;;;;3.53;2.72;;;22.60;99.90;;;;;;1055750;28;20026;-66
2022/08/19 02:09:10;;;;;;;3.85;2.63;;;22.60;99.90;;;;;;1055345;28;20510;-66
2022/08/19 02:09:40;;;;;;;3.33;2.97;;;22.60;99.90;;;;;;1050969;28;20424;-66
2022/08/19 02:10:15;;;;;;;2.93;2.63;;;22.60;99.90;;;;;;1050857;28;20121;-66
2022/08/19 02:10:46;;;;;;;3.03;2.83;;;22.60;99.90;;;;;;1051009;28;20051;-65
2022/08/19 02:11:27;;;;;;;3.23;2.90;;;22.60;99.90;;;;;;1051791;28;20016;-66
2022/08/19 02:11:58;;;;;;;3.90;2.95;;;22.60;99.90;;;;;;1055348;28;20617;-66
2022/08/19 02:12:28;;;;;;;3.03;2.78;;;22.60;99.90;;;;;;1055628;28;20550;-66
2022/08/19 02:12:59;;;;;;;4.30;2.83;;;22.60;99.90;;;;;;1055376;28;20542;-66
2022/08/19 02:13:30;;;;;;;2.83;2.60;;;22.50;99.90;;;;;;1055637;28;20051;-66
2022/08/19 02:14:05;;;;;;;3.47;3.08;;;22.50;99.90;;;;;;1055291;28;20386;-66
2022/08/19 02:14:36;;;;;;;3.20;2.83;;;22.50;99.90;;;;;;1055752;28;20528;-66
2022/08/19 02:15:07;;;;;;;3.47;3.17;;;22.50;99.90;;;;;;1055233;28;20650;-65
2022/08/19 02:15:38;;;;;;;3.17;2.88;;;22.50;99.90;;;;;;1055685;28;20490;-66
2022/08/19 02:16:08;;;;;;;3.13;2.60;;;22.50;99.90;;;;;;1055440;28;20507;-65
2022/08/19 02:16:40;;;;;;;3.80;2.77;;;22.50;99.90;;;;;;1055543;28;20061;-66
2022/08/19 02:17:10;;;;;;;3.33;2.90;;;22.50;99.90;;;;;;1055490;28;20028;-66
2022/08/19 02:17:42;;;;;;;3.40;2.50;;;22.50;99.90;;;;;;1055566;28;20500;-66
2022/08/19 02:18:13;;;;;;;3.40;3.10;;;22.50;99.90;;;;;;1051016;28;20670;-65
2022/08/19 02:18:45;;;;;;;3.90;3.22;;;22.50;99.90;;;;;;1050945;28;20035;-66
2022/08/19 02:19:16;;;;;;;3.10;2.80;;;22.50;99.90;;;;;;1051006;28;20505;-66
2022/08/19 02:19:47;;;;;;;3.10;2.88;;;22.50;99.90;;;;;;1051249;28;20340;-66
2022/08/19 02:20:18;;;;;;;3.47;2.88;;;22.50;99.90;;;;;;1055639;28;20076;-65
2022/08/19 02:20:48;;;;;;;3.90;2.80;;;22.50;99.90;;;;;;1055443;28;20057;-66
2022/08/19 02:21:21;;;;;;;3.10;2.77;;;22.50;99.90;;;;;;1055578;28;20034;-65
2022/08/19 02:21:52;;;;;;;2.55;2.35;;;22.50;99.90;;;;;;1055512;28;20039;-66
2022/08/19 02:22:25;;;;;;;2.70;2.50;;;22.50;99.90;;;;;;1055691;28;20046;-66
2022/08/19 02:22:55;;;;;;;2.95;2.35;;;22.50;99.90;;;;;;1055434;28;20186;-67
2022/08/19 02:23:26;;;;;;;3.67;3.30;;;22.50;99.90;;;;;;1055576;28;20024;-66
2022/08/19 02:23:57;;;;;;;3.85;2.85;;;22.50;99.90;;;;;;1055544;28;20024;-66
2022/08/19 02:24:28;;;;;;;4.03;2.83;;;22.50;99.90;;;;;;1055594;28;20024;-66
2022/08/19 02:24:58;;;;;;;3.40;3.10;;;22.50;99.90;;;;;;1055328;28;20073;-67
2022/08/19 02:25:29;;;;;;;3.50;2.80;;;22.50;99.90;;;;;;1055886;28;20524;-66
2022/08/19 02:25:59;;;;;;;2.53;2.33;;;22.50;99.90;;;;;;1054791;28;20049;-66
2022/08/19 02:26:32;;;;;;;3.93;3.00;;;22.50;99.90;;;;;;1055825;28;20154;-67
2022/08/19 02:27:02;;;;;;;3.30;3.00;;;22.50;99.90;;;;;;1050678;28;20013;-67
2022/08/19 02:27:33;;;;;;;3.17;2.87;;;22.50;99.90;;;;;;1051211;28;20025;-67
2022/08/19 02:28:04;;;;;;;3.17;2.77;;;22.50;99.90;;;;;;1050735;28;20384;-67
2022/08/19 02:28:36;;;;;;;3.22;2.92;;;22.50;99.90;;;;;;1051497;28;20016;-67
2022/08/19 02:29:06;;;;;;;3.47;3.17;;;22.40;99.90;;;;;;1055289;28;20012;-66
2022/08/19 02:29:37;;;;;;;4.13;2.67;;;22.50;99.90;;;;;;1055756;28;20028;-67
2022/08/19 02:30:11;;;;;;;2.70;2.50;;;22.50;99.90;;;;;;1051427;28;20020;-66
2022/08/19 02:30:42;;;;;;;3.75;3.17;;;22.40;99.90;;;;;;1051429;28;20020;-67
2022/08/19 02:31:16;;;;;;;2.92;2.70;;;22.40;99.90;;;;;;1051237;28;20024;-67
2022/08/19 02:31:46;;;;;;;2.85;2.60;;;22.40;99.90;;;;;;1055307;28;20055;-66
2022/08/19 02:32:21;;;;;;;3.43;2.60;;;22.40;99.90;;;;;;1055194;28;20023;-66
2022/08/19 02:32:52;;;;;;;3.83;3.30;;;22.40;99.90;;;;;;1055313;28;20124;-66
2022/08/19 02:33:23;;;;;;;2.97;2.67;;;22.40;99.90;;;;;;1053951;28;20028;-66
2022/08/19 02:33:55;;;;;;;4.50;2.83;;;22.40;99.90;;;;;;1053156;28;20146;-66
2022/08/19 02:34:25;;;;;;;2.78;2.58;;;22.40;99.90;;;;;;1055491;28;20039;-68
2022/08/19 02:34:56;;;;;;;2.80;2.60;;;22.40;99.90;;;;;;1055503;28;20020;-66
2022/08/19 02:35:26;;;;;;;2.73;2.53;;;22.40;99.90;;;;;;1055619;28;20020;-64
2022/08/19 02:35:57;;;;;;;3.13;2.83;;;22.40;99.90;;;;;;1055544;28;20024;-66
2022/08/19 02:36:28;;;;;;;3.38;2.83;;;22.40;99.90;;;;;;1055310;28;20078;-66
2022/08/19 02:36:59;;;;;;;3.20;2.90;;;22.40;99.90;;;;;;1055432;28;20076;-66
2022/08/19 02:38:27;;;;;;;3.95;2.83;;;22.50;99.90;;;;;;1055537;28;20042;-65
2022/08/19 02:38:58;;;;;;;3.75;2.83;;;22.40;99.90;;;;;;1055588;28;20016;-65
2022/08/19 02:39:28;;;;;;;3.57;2.90;;;22.40;99.90;;;;;;1055545;28;20031;-65
2022/08/19 02:39:59;;;;;;;3.33;2.80;;;22.40;99.90;;;;;;1055378;28;20039;-65
2022/08/19 02:40:34;;;;;;;2.87;2.27;;;22.40;99.90;;;;;;1059140;28;20034;-65
2022/08/19 02:41:10;;;;;;;3.25;2.85;;;22.40;99.90;;;;;;1059657;28;20405;-65
2022/08/19 02:41:41;;;;;;;3.08;2.78;;;22.40;99.90;;;;;;1060458;27;20440;-65
2022/08/19 02:42:12;;;;;;;3.27;2.97;;;22.40;99.90;;;;;;1060698;27;20518;-65
2022/08/19 02:42:42;;;;;;;2.97;2.55;;;22.40;99.90;;;;;;1060323;27;20027;-65
2022/08/19 02:43:13;;;;;;;3.57;2.93;;;22.40;99.90;;;;;;1064562;27;20847;-65
2022/08/19 02:43:44;;;;;;;2.80;2.60;;;22.40;99.90;;;;;;1064395;27;20466;-65
2022/08/19 02:44:15;;;;;;;3.40;2.83;;;22.40;99.90;;;;;;1064568;27;20106;-66
2022/08/19 02:44:45;;;;;;;3.10;2.50;;;22.40;99.90;;;;;;1064217;27;20022;-65
2022/08/19 02:45:16;;;;;;;3.80;3.23;;;22.40;99.90;;;;;;1060609;27;20034;-65
2022/08/19 02:45:48;;;;;;;3.10;2.50;;;22.40;99.90;;;;;;1060399;27;20034;-65
2022/08/19 02:46:22;;;;;;;6.32;3.10;;;22.40;99.90;;;;;;1060796;27;20670;-65
2022/08/19 02:46:52;;;;;;;2.50;2.30;;;22.40;99.90;;;;;;1060381;27;20055;-65
2022/08/19 02:47:23;;;;;;;3.13;2.63;;;22.40;99.90;;;;;;1060777;27;20015;-65
2022/08/19 02:47:53;;;;;;;2.87;2.67;;;22.40;99.90;;;;;;1060484;27;20011;-65